sensor_id;sensor_type;location;lat;lon;timestamp;P1;durP1;ratioP1;P2;durP2;ratioP2
74465;SDS011;62916;50.044;15.938;2023-07-13T00:01:43;1.70;;;1.50;;
74465;SDS011;62916;50.044;15.938;2023-07-13T00:04:18;2.20;;;1.90;;
74465;SDS011;62916;50.044;15.938;2023-07-13T00:06:50;2.70;;;1.80;;
74465;SDS011;62916;50.044;15.938;2023-07-13T00:09:21;2.10;;;1.60;;
74465;SDS011;62916;50.044;15.938;2023-07-13T00:11:54;2.60;;;1.70;;
74465;SDS011;62916;50.044;15.938;2023-07-13T00:14:26;2.30;;;1.80;;
74465;SDS011;62916;50.044;15.938;2023-07-13T00:16:58;3.10;;;1.90;;
74465;SDS011;62916;50.044;15.938;2023-07-13T00:19:29;4.70;;;2.10;;
74465;SDS011;62916;50.044;15.938;2023-07-13T00:22:00;2.40;;;1.90;;
74465;SDS011;62916;50.044;15.938;2023-07-13T00:24:30;2.70;;;1.80;;
74465;SDS011;62916;50.044;15.938;2023-07-13T00:27:04;2.70;;;1.70;;
74465;SDS011;62916;50.044;15.938;2023-07-13T00:29:34;2.40;;;1.90;;
74465;SDS011;62916;50.044;15.938;2023-07-13T00:32:07;2.20;;;2.00;;
74465;SDS011;62916;50.044;15.938;2023-07-13T00:34:39;2.10;;;1.90;;
74465;SDS011;62916;50.044;15.938;2023-07-13T00:37:10;2.10;;;1.90;;
74465;SDS011;62916;50.044;15.938;2023-07-13T00:39:40;3.40;;;2.10;;
74465;SDS011;62916;50.044;15.938;2023-07-13T00:42:13;2.10;;;1.90;;
74465;SDS011;62916;50.044;15.938;2023-07-13T00:47:32;2.30;;;2.10;;
74465;SDS011;62916;50.044;15.938;2023-07-13T00:50:04;2.60;;;1.80;;
74465;SDS011;62916;50.044;15.938;2023-07-13T00:52:37;2.70;;;1.70;;
74465;SDS011;62916;50.044;15.938;2023-07-13T00:55:10;1.90;;;1.50;;
74465;SDS011;62916;50.044;15.938;2023-07-13T00:57:43;4.20;;;2.20;;
74465;SDS011;62916;50.044;15.938;2023-07-13T01:00:14;2.60;;;1.80;;
74465;SDS011;62916;50.044;15.938;2023-07-13T01:02:48;2.70;;;1.90;;
74465;SDS011;62916;50.044;15.938;2023-07-13T01:05:20;2.60;;;2.40;;
74465;SDS011;62916;50.044;15.938;2023-07-13T01:07:53;1.60;;;1.50;;
74465;SDS011;62916;50.044;15.938;2023-07-13T01:10:25;2.70;;;2.30;;
74465;SDS011;62916;50.044;15.938;2023-07-13T01:12:56;2.60;;;1.70;;
74465;SDS011;62916;50.044;15.938;2023-07-13T01:15:35;1.80;;;1.60;;
74465;SDS011;62916;50.044;15.938;2023-07-13T01:18:09;2.40;;;1.90;;
74465;SDS011;62916;50.044;15.938;2023-07-13T01:23:16;3.80;;;2.20;;
74465;SDS011;62916;50.044;15.938;2023-07-13T01:25:48;2.20;;;1.80;;
74465;SDS011;62916;50.044;15.938;2023-07-13T01:28:19;2.70;;;1.90;;
74465;SDS011;62916;50.044;15.938;2023-07-13T01:30:55;2.70;;;2.00;;
74465;SDS011;62916;50.044;15.938;2023-07-13T01:33:27;3.30;;;2.00;;
74465;SDS011;62916;50.044;15.938;2023-07-13T01:35:58;3.90;;;2.60;;
74465;SDS011;62916;50.044;15.938;2023-07-13T01:38:30;3.20;;;2.60;;
74465;SDS011;62916;50.044;15.938;2023-07-13T01:41:01;2.50;;;2.30;;
74465;SDS011;62916;50.044;15.938;2023-07-13T01:43:32;3.30;;;2.70;;
74465;SDS011;62916;50.044;15.938;2023-07-13T01:46:03;3.60;;;3.10;;
74465;SDS011;62916;50.044;15.938;2023-07-13T01:48:50;3.50;;;2.60;;
74465;SDS011;62916;50.044;15.938;2023-07-13T01:51:21;3.30;;;2.60;;
74465;SDS011;62916;50.044;15.938;2023-07-13T01:53:51;3.90;;;3.00;;
74465;SDS011;62916;50.044;15.938;2023-07-13T01:56:23;2.70;;;2.10;;
74465;SDS011;62916;50.044;15.938;2023-07-13T01:58:54;2.90;;;2.30;;
74465;SDS011;62916;50.044;15.938;2023-07-13T02:01:24;2.40;;;2.10;;
74465;SDS011;62916;50.044;15.938;2023-07-13T02:03:56;2.80;;;2.40;;
74465;SDS011;62916;50.044;15.938;2023-07-13T02:06:27;2.60;;;2.40;;
74465;SDS011;62916;50.044;15.938;2023-07-13T02:08:57;3.20;;;2.20;;
74465;SDS011;62916;50.044;15.938;2023-07-13T02:11:28;3.50;;;2.10;;
74465;SDS011;62916;50.044;15.938;2023-07-13T02:14:01;4.00;;;2.30;;
74465;SDS011;62916;50.044;15.938;2023-07-13T02:16:32;3.30;;;2.20;;
74465;SDS011;62916;50.044;15.938;2023-07-13T02:19:03;2.70;;;1.90;;
74465;SDS011;62916;50.044;15.938;2023-07-13T02:21:35;3.00;;;2.20;;
74465;SDS011;62916;50.044;15.938;2023-07-13T02:24:06;4.50;;;2.50;;
74465;SDS011;62916;50.044;15.938;2023-07-13T02:26:37;3.80;;;2.50;;
74465;SDS011;62916;50.044;15.938;2023-07-13T02:29:07;2.60;;;2.40;;
74465;SDS011;62916;50.044;15.938;2023-07-13T02:31:38;2.50;;;2.00;;
74465;SDS011;62916;50.044;15.938;2023-07-13T02:34:09;3.20;;;2.20;;
74465;SDS011;62916;50.044;15.938;2023-07-13T02:36:40;2.60;;;2.30;;
74465;SDS011;62916;50.044;15.938;2023-07-13T02:39:11;2.30;;;2.10;;
74465;SDS011;62916;50.044;15.938;2023-07-13T02:41:42;4.00;;;2.30;;
74465;SDS011;62916;50.044;15.938;2023-07-13T02:44:14;3.30;;;3.00;;
74465;SDS011;62916;50.044;15.938;2023-07-13T02:46:45;2.80;;;2.40;;
74465;SDS011;62916;50.044;15.938;2023-07-13T02:49:15;3.40;;;2.30;;
74465;SDS011;62916;50.044;15.938;2023-07-13T02:51:46;2.60;;;2.40;;
74465;SDS011;62916;50.044;15.938;2023-07-13T02:54:17;3.20;;;2.40;;
74465;SDS011;62916;50.044;15.938;2023-07-13T02:56:48;4.70;;;2.30;;
74465;SDS011;62916;50.044;15.938;2023-07-13T02:59:19;3.40;;;2.20;;
74465;SDS011;62916;50.044;15.938;2023-07-13T03:01:50;2.50;;;2.30;;
74465;SDS011;62916;50.044;15.938;2023-07-13T03:04:20;2.20;;;2.00;;
74465;SDS011;62916;50.044;15.938;2023-07-13T03:06:52;2.90;;;2.10;;
74465;SDS011;62916;50.044;15.938;2023-07-13T03:09:25;4.60;;;2.40;;
74465;SDS011;62916;50.044;15.938;2023-07-13T03:11:56;3.70;;;2.20;;
74465;SDS011;62916;50.044;15.938;2023-07-13T03:14:27;2.50;;;2.30;;
74465;SDS011;62916;50.044;15.938;2023-07-13T03:16:58;2.70;;;2.50;;
74465;SDS011;62916;50.044;15.938;2023-07-13T03:19:29;2.80;;;2.20;;
74465;SDS011;62916;50.044;15.938;2023-07-13T03:22:00;2.50;;;2.00;;
74465;SDS011;62916;50.044;15.938;2023-07-13T03:24:34;3.20;;;2.30;;
74465;SDS011;62916;50.044;15.938;2023-07-13T03:27:07;3.90;;;2.40;;
74465;SDS011;62916;50.044;15.938;2023-07-13T03:29:38;2.50;;;2.30;;
74465;SDS011;62916;50.044;15.938;2023-07-13T03:32:09;3.50;;;2.20;;
74465;SDS011;62916;50.044;15.938;2023-07-13T03:34:40;5.30;;;2.70;;
74465;SDS011;62916;50.044;15.938;2023-07-13T03:37:10;5.90;;;2.30;;
74465;SDS011;62916;50.044;15.938;2023-07-13T03:39:41;6.30;;;2.60;;
74465;SDS011;62916;50.044;15.938;2023-07-13T03:42:12;6.40;;;2.50;;
74465;SDS011;62916;50.044;15.938;2023-07-13T03:44:44;3.00;;;2.60;;
74465;SDS011;62916;50.044;15.938;2023-07-13T03:47:20;2.40;;;2.20;;
74465;SDS011;62916;50.044;15.938;2023-07-13T03:49:51;2.90;;;2.00;;
74465;SDS011;62916;50.044;15.938;2023-07-13T03:52:22;4.00;;;2.30;;
74465;SDS011;62916;50.044;15.938;2023-07-13T03:54:53;3.00;;;2.10;;
74465;SDS011;62916;50.044;15.938;2023-07-13T03:57:23;6.40;;;2.90;;
74465;SDS011;62916;50.044;15.938;2023-07-13T03:59:54;4.80;;;2.70;;
74465;SDS011;62916;50.044;15.938;2023-07-13T04:02:26;4.80;;;3.20;;
74465;SDS011;62916;50.044;15.938;2023-07-13T04:04:56;8.00;;;2.70;;
74465;SDS011;62916;50.044;15.938;2023-07-13T04:07:27;10.20;;;3.00;;
74465;SDS011;62916;50.044;15.938;2023-07-13T04:09:58;11.90;;;3.00;;
74465;SDS011;62916;50.044;15.938;2023-07-13T04:12:29;15.10;;;3.40;;
74465;SDS011;62916;50.044;15.938;2023-07-13T04:15:00;10.50;;;3.20;;
74465;SDS011;62916;50.044;15.938;2023-07-13T04:17:30;17.00;;;3.50;;
74465;SDS011;62916;50.044;15.938;2023-07-13T04:20:01;17.00;;;3.20;;
74465;SDS011;62916;50.044;15.938;2023-07-13T04:22:34;16.60;;;3.30;;
74465;SDS011;62916;50.044;15.938;2023-07-13T04:25:06;16.00;;;3.80;;
74465;SDS011;62916;50.044;15.938;2023-07-13T04:27:37;12.10;;;2.80;;
74465;SDS011;62916;50.044;15.938;2023-07-13T04:30:09;9.50;;;3.10;;
74465;SDS011;62916;50.044;15.938;2023-07-13T04:32:40;9.10;;;2.40;;
74465;SDS011;62916;50.044;15.938;2023-07-13T04:35:11;10.70;;;3.30;;
74465;SDS011;62916;50.044;15.938;2023-07-13T04:37:42;13.60;;;2.80;;
74465;SDS011;62916;50.044;15.938;2023-07-13T04:40:13;7.90;;;3.10;;
74465;SDS011;62916;50.044;15.938;2023-07-13T04:42:44;7.10;;;2.70;;
74465;SDS011;62916;50.044;15.938;2023-07-13T04:45:15;7.20;;;2.70;;
74465;SDS011;62916;50.044;15.938;2023-07-13T04:47:46;6.80;;;2.60;;
74465;SDS011;62916;50.044;15.938;2023-07-13T04:50:17;6.50;;;2.10;;
74465;SDS011;62916;50.044;15.938;2023-07-13T04:52:51;6.80;;;2.40;;
74465;SDS011;62916;50.044;15.938;2023-07-13T04:55:22;7.10;;;2.30;;
74465;SDS011;62916;50.044;15.938;2023-07-13T04:57:52;7.40;;;2.60;;
74465;SDS011;62916;50.044;15.938;2023-07-13T05:00:23;9.00;;;3.00;;
74465;SDS011;62916;50.044;15.938;2023-07-13T05:02:55;3.50;;;2.50;;
74465;SDS011;62916;50.044;15.938;2023-07-13T05:05:27;5.00;;;2.40;;
74465;SDS011;62916;50.044;15.938;2023-07-13T05:07:58;5.00;;;2.60;;
74465;SDS011;62916;50.044;15.938;2023-07-13T05:10:29;5.10;;;2.60;;
74465;SDS011;62916;50.044;15.938;2023-07-13T05:13:00;4.50;;;2.70;;
74465;SDS011;62916;50.044;15.938;2023-07-13T05:15:32;4.10;;;2.30;;
74465;SDS011;62916;50.044;15.938;2023-07-13T05:18:03;4.40;;;2.70;;
74465;SDS011;62916;50.044;15.938;2023-07-13T05:20:34;4.10;;;2.40;;
74465;SDS011;62916;50.044;15.938;2023-07-13T05:23:05;4.00;;;2.20;;
74465;SDS011;62916;50.044;15.938;2023-07-13T05:25:36;4.70;;;2.40;;
74465;SDS011;62916;50.044;15.938;2023-07-13T05:28:06;2.90;;;2.30;;
74465;SDS011;62916;50.044;15.938;2023-07-13T05:30:37;4.10;;;2.60;;
74465;SDS011;62916;50.044;15.938;2023-07-13T05:33:08;6.50;;;2.80;;
74465;SDS011;62916;50.044;15.938;2023-07-13T05:35:39;4.70;;;2.90;;
74465;SDS011;62916;50.044;15.938;2023-07-13T05:38:10;3.00;;;2.50;;
74465;SDS011;62916;50.044;15.938;2023-07-13T05:40:41;2.90;;;2.60;;
74465;SDS011;62916;50.044;15.938;2023-07-13T05:43:13;4.60;;;2.50;;
74465;SDS011;62916;50.044;15.938;2023-07-13T05:45:44;3.60;;;2.40;;
74465;SDS011;62916;50.044;15.938;2023-07-13T05:48:15;3.20;;;2.60;;
74465;SDS011;62916;50.044;15.938;2023-07-13T05:50:46;3.00;;;2.60;;
74465;SDS011;62916;50.044;15.938;2023-07-13T05:53:17;4.40;;;2.70;;
74465;SDS011;62916;50.044;15.938;2023-07-13T05:55:47;3.80;;;2.80;;
74465;SDS011;62916;50.044;15.938;2023-07-13T05:58:20;3.50;;;2.70;;
74465;SDS011;62916;50.044;15.938;2023-07-13T06:00:58;3.60;;;2.60;;
74465;SDS011;62916;50.044;15.938;2023-07-13T06:03:31;4.30;;;2.70;;
74465;SDS011;62916;50.044;15.938;2023-07-13T06:06:02;2.70;;;2.50;;
74465;SDS011;62916;50.044;15.938;2023-07-13T06:08:35;3.00;;;2.60;;
74465;SDS011;62916;50.044;15.938;2023-07-13T06:11:07;2.70;;;2.50;;
74465;SDS011;62916;50.044;15.938;2023-07-13T06:13:42;3.00;;;2.70;;
74465;SDS011;62916;50.044;15.938;2023-07-13T06:16:13;3.80;;;2.60;;
74465;SDS011;62916;50.044;15.938;2023-07-13T06:18:45;3.20;;;2.60;;
74465;SDS011;62916;50.044;15.938;2023-07-13T06:21:17;3.70;;;3.00;;
74465;SDS011;62916;50.044;15.938;2023-07-13T06:23:50;4.20;;;2.60;;
74465;SDS011;62916;50.044;15.938;2023-07-13T06:26:21;2.90;;;2.70;;
74465;SDS011;62916;50.044;15.938;2023-07-13T06:28:52;3.00;;;2.80;;
74465;SDS011;62916;50.044;15.938;2023-07-13T06:31:23;3.40;;;2.90;;
74465;SDS011;62916;50.044;15.938;2023-07-13T06:33:54;3.20;;;2.80;;
74465;SDS011;62916;50.044;15.938;2023-07-13T06:36:25;5.70;;;2.80;;
74465;SDS011;62916;50.044;15.938;2023-07-13T06:38:56;4.10;;;2.80;;
74465;SDS011;62916;50.044;15.938;2023-07-13T06:41:27;3.70;;;3.10;;
74465;SDS011;62916;50.044;15.938;2023-07-13T06:43:58;3.80;;;3.00;;
74465;SDS011;62916;50.044;15.938;2023-07-13T06:46:29;4.10;;;3.20;;
74465;SDS011;62916;50.044;15.938;2023-07-13T06:49:00;3.70;;;3.40;;
74465;SDS011;62916;50.044;15.938;2023-07-13T06:51:31;5.00;;;3.60;;
74465;SDS011;62916;50.044;15.938;2023-07-13T06:54:02;5.00;;;3.00;;
74465;SDS011;62916;50.044;15.938;2023-07-13T06:56:33;4.20;;;2.90;;
74465;SDS011;62916;50.044;15.938;2023-07-13T06:59:04;4.70;;;3.50;;
74465;SDS011;62916;50.044;15.938;2023-07-13T07:01:34;4.40;;;3.10;;
74465;SDS011;62916;50.044;15.938;2023-07-13T07:04:08;3.90;;;2.80;;
74465;SDS011;62916;50.044;15.938;2023-07-13T07:06:39;3.20;;;2.80;;
74465;SDS011;62916;50.044;15.938;2023-07-13T07:09:11;3.70;;;3.00;;
74465;SDS011;62916;50.044;15.938;2023-07-13T07:11:44;4.60;;;3.50;;
74465;SDS011;62916;50.044;15.938;2023-07-13T07:14:30;3.90;;;3.10;;
74465;SDS011;62916;50.044;15.938;2023-07-13T07:17:02;3.60;;;3.30;;
74465;SDS011;62916;50.044;15.938;2023-07-13T07:19:34;4.90;;;3.40;;
74465;SDS011;62916;50.044;15.938;2023-07-13T07:22:06;5.60;;;3.40;;
74465;SDS011;62916;50.044;15.938;2023-07-13T07:24:37;4.10;;;3.10;;
74465;SDS011;62916;50.044;15.938;2023-07-13T07:27:08;3.50;;;3.10;;
74465;SDS011;62916;50.044;15.938;2023-07-13T07:29:42;4.30;;;3.90;;
74465;SDS011;62916;50.044;15.938;2023-07-13T07:32:33;3.50;;;3.10;;
74465;SDS011;62916;50.044;15.938;2023-07-13T07:35:07;3.50;;;3.10;;
74465;SDS011;62916;50.044;15.938;2023-07-13T07:37:38;3.30;;;3.00;;
74465;SDS011;62916;50.044;15.938;2023-07-13T07:40:12;3.70;;;3.40;;
74465;SDS011;62916;50.044;15.938;2023-07-13T07:42:45;3.40;;;3.00;;
74465;SDS011;62916;50.044;15.938;2023-07-13T07:45:16;4.30;;;2.90;;
74465;SDS011;62916;50.044;15.938;2023-07-13T07:47:48;3.60;;;2.80;;
74465;SDS011;62916;50.044;15.938;2023-07-13T07:50:19;3.60;;;2.60;;
74465;SDS011;62916;50.044;15.938;2023-07-13T07:52:50;3.10;;;2.50;;
74465;SDS011;62916;50.044;15.938;2023-07-13T07:55:21;3.70;;;2.50;;
74465;SDS011;62916;50.044;15.938;2023-07-13T07:57:57;3.20;;;2.70;;
74465;SDS011;62916;50.044;15.938;2023-07-13T08:00:31;3.20;;;2.90;;
74465;SDS011;62916;50.044;15.938;2023-07-13T08:03:23;2.20;;;2.00;;
74465;SDS011;62916;50.044;15.938;2023-07-13T08:05:56;2.90;;;2.70;;
74465;SDS011;62916;50.044;15.938;2023-07-13T08:08:48;2.70;;;2.50;;
74465;SDS011;62916;50.044;15.938;2023-07-13T08:11:20;4.70;;;2.50;;
74465;SDS011;62916;50.044;15.938;2023-07-13T08:13:55;3.90;;;2.40;;
74465;SDS011;62916;50.044;15.938;2023-07-13T08:16:26;2.90;;;2.70;;
74465;SDS011;62916;50.044;15.938;2023-07-13T08:18:57;2.50;;;2.30;;
74465;SDS011;62916;50.044;15.938;2023-07-13T08:21:27;2.80;;;2.60;;
74465;SDS011;62916;50.044;15.938;2023-07-13T08:23:58;2.80;;;2.40;;
74465;SDS011;62916;50.044;15.938;2023-07-13T08:26:29;2.70;;;2.50;;
74465;SDS011;62916;50.044;15.938;2023-07-13T08:29:00;3.50;;;2.80;;
74465;SDS011;62916;50.044;15.938;2023-07-13T08:31:31;2.50;;;2.30;;
74465;SDS011;62916;50.044;15.938;2023-07-13T08:34:02;2.90;;;2.40;;
74465;SDS011;62916;50.044;15.938;2023-07-13T08:36:33;2.60;;;2.40;;
74465;SDS011;62916;50.044;15.938;2023-07-13T08:39:04;2.20;;;1.90;;
74465;SDS011;62916;50.044;15.938;2023-07-13T08:41:35;2.40;;;2.20;;
74465;SDS011;62916;50.044;15.938;2023-07-13T08:44:07;2.20;;;2.00;;
74465;SDS011;62916;50.044;15.938;2023-07-13T08:46:52;2.00;;;1.80;;
74465;SDS011;62916;50.044;15.938;2023-07-13T08:49:25;2.90;;;2.60;;
74465;SDS011;62916;50.044;15.938;2023-07-13T08:51:57;2.50;;;2.30;;
74465;SDS011;62916;50.044;15.938;2023-07-13T08:54:33;2.20;;;2.00;;
74465;SDS011;62916;50.044;15.938;2023-07-13T08:57:11;2.70;;;2.30;;
74465;SDS011;62916;50.044;15.938;2023-07-13T08:59:44;2.30;;;2.10;;
74465;SDS011;62916;50.044;15.938;2023-07-13T09:02:19;2.50;;;2.30;;
74465;SDS011;62916;50.044;15.938;2023-07-13T09:04:56;3.20;;;2.20;;
74465;SDS011;62916;50.044;15.938;2023-07-13T09:07:38;2.40;;;2.00;;
74465;SDS011;62916;50.044;15.938;2023-07-13T09:10:21;2.20;;;2.00;;
74465;SDS011;62916;50.044;15.938;2023-07-13T09:13:00;2.80;;;2.60;;
74465;SDS011;62916;50.044;15.938;2023-07-13T09:15:44;2.30;;;2.10;;
74465;SDS011;62916;50.044;15.938;2023-07-13T09:20:49;2.30;;;2.10;;
74465;SDS011;62916;50.044;15.938;2023-07-13T09:23:24;2.30;;;2.10;;
74465;SDS011;62916;50.044;15.938;2023-07-13T09:26:00;2.20;;;2.00;;
74465;SDS011;62916;50.044;15.938;2023-07-13T09:28:37;2.60;;;2.10;;
74465;SDS011;62916;50.044;15.938;2023-07-13T09:31:13;2.00;;;1.80;;
74465;SDS011;62916;50.044;15.938;2023-07-13T09:33:47;2.30;;;2.10;;
74465;SDS011;62916;50.044;15.938;2023-07-13T09:36:19;2.20;;;2.00;;
74465;SDS011;62916;50.044;15.938;2023-07-13T09:38:56;2.40;;;2.10;;
74465;SDS011;62916;50.044;15.938;2023-07-13T09:41:33;2.00;;;1.80;;
74465;SDS011;62916;50.044;15.938;2023-07-13T09:44:11;2.30;;;2.10;;
74465;SDS011;62916;50.044;15.938;2023-07-13T09:49:15;2.20;;;2.00;;
74465;SDS011;62916;50.044;15.938;2023-07-13T09:51:47;2.10;;;1.80;;
74465;SDS011;62916;50.044;15.938;2023-07-13T09:54:26;2.10;;;1.90;;
74465;SDS011;62916;50.044;15.938;2023-07-13T09:56:57;2.50;;;2.30;;
74465;SDS011;62916;50.044;15.938;2023-07-13T09:59:31;1.90;;;1.70;;
74465;SDS011;62916;50.044;15.938;2023-07-13T10:02:08;2.00;;;1.90;;
74465;SDS011;62916;50.044;15.938;2023-07-13T10:04:56;2.10;;;1.90;;
74465;SDS011;62916;50.044;15.938;2023-07-13T10:07:29;2.10;;;1.90;;
74465;SDS011;62916;50.044;15.938;2023-07-13T10:10:01;2.20;;;2.00;;
74465;SDS011;62916;50.044;15.938;2023-07-13T10:12:42;2.30;;;2.10;;
74465;SDS011;62916;50.044;15.938;2023-07-13T10:15:15;3.70;;;2.30;;
74465;SDS011;62916;50.044;15.938;2023-07-13T10:17:52;2.10;;;1.80;;
74465;SDS011;62916;50.044;15.938;2023-07-13T10:20:26;2.30;;;2.20;;
74465;SDS011;62916;50.044;15.938;2023-07-13T10:22:58;2.10;;;1.90;;
74465;SDS011;62916;50.044;15.938;2023-07-13T10:25:34;2.20;;;2.00;;
74465;SDS011;62916;50.044;15.938;2023-07-13T10:28:11;2.30;;;1.90;;
74465;SDS011;62916;50.044;15.938;2023-07-13T10:30:51;2.00;;;1.60;;
74465;SDS011;62916;50.044;15.938;2023-07-13T10:33:25;1.80;;;1.70;;
74465;SDS011;62916;50.044;15.938;2023-07-13T10:35:57;2.20;;;2.10;;
74465;SDS011;62916;50.044;15.938;2023-07-13T10:38:35;2.40;;;2.00;;
74465;SDS011;62916;50.044;15.938;2023-07-13T10:41:07;2.60;;;1.80;;
74465;SDS011;62916;50.044;15.938;2023-07-13T10:43:45;1.80;;;1.70;;
74465;SDS011;62916;50.044;15.938;2023-07-13T10:46:20;1.90;;;1.80;;
74465;SDS011;62916;50.044;15.938;2023-07-13T10:48:56;2.40;;;2.00;;
74465;SDS011;62916;50.044;15.938;2023-07-13T10:51:30;1.80;;;1.70;;
74465;SDS011;62916;50.044;15.938;2023-07-13T10:54:16;1.70;;;1.60;;
74465;SDS011;62916;50.044;15.938;2023-07-13T10:56:52;2.10;;;1.90;;
74465;SDS011;62916;50.044;15.938;2023-07-13T10:59:39;1.30;;;1.20;;
74465;SDS011;62916;50.044;15.938;2023-07-13T11:02:17;1.80;;;1.70;;
74465;SDS011;62916;50.044;15.938;2023-07-13T11:04:56;2.20;;;1.80;;
74465;SDS011;62916;50.044;15.938;2023-07-13T11:07:52;1.60;;;1.50;;
74465;SDS011;62916;50.044;15.938;2023-07-13T11:22:09;2.10;;;1.80;;
74465;SDS011;62916;50.044;15.938;2023-07-13T11:24:56;1.80;;;1.70;;
74465;SDS011;62916;50.044;15.938;2023-07-13T11:27:33;2.60;;;1.50;;
74465;SDS011;62916;50.044;15.938;2023-07-13T11:30:20;2.10;;;1.80;;
74465;SDS011;62916;50.044;15.938;2023-07-13T11:33:03;1.80;;;1.60;;
74465;SDS011;62916;50.044;15.938;2023-07-13T11:35:43;2.10;;;2.00;;
74465;SDS011;62916;50.044;15.938;2023-07-13T11:38:21;1.60;;;1.50;;
74465;SDS011;62916;50.044;15.938;2023-07-13T11:40:56;1.70;;;1.60;;
74465;SDS011;62916;50.044;15.938;2023-07-13T11:43:32;1.90;;;1.50;;
74465;SDS011;62916;50.044;15.938;2023-07-13T11:46:13;2.00;;;1.80;;
74465;SDS011;62916;50.044;15.938;2023-07-13T11:48:48;2.10;;;1.70;;
74465;SDS011;62916;50.044;15.938;2023-07-13T11:51:21;1.60;;;1.50;;
74465;SDS011;62916;50.044;15.938;2023-07-13T11:53:55;2.20;;;2.00;;
74465;SDS011;62916;50.044;15.938;2023-07-13T11:56:35;2.10;;;2.00;;
74465;SDS011;62916;50.044;15.938;2023-07-13T11:59:07;1.90;;;1.80;;
74465;SDS011;62916;50.044;15.938;2023-07-13T12:01:43;1.80;;;1.70;;
74465;SDS011;62916;50.044;15.938;2023-07-13T12:04:20;2.10;;;1.80;;
74465;SDS011;62916;50.044;15.938;2023-07-13T12:06:58;1.90;;;1.80;;
74465;SDS011;62916;50.044;15.938;2023-07-13T12:09:36;1.90;;;1.50;;
74465;SDS011;62916;50.044;15.938;2023-07-13T12:12:12;2.00;;;1.80;;
74465;SDS011;62916;50.044;15.938;2023-07-13T12:14:45;1.70;;;1.60;;
74465;SDS011;62916;50.044;15.938;2023-07-13T12:17:21;1.60;;;1.50;;
74465;SDS011;62916;50.044;15.938;2023-07-13T12:19:54;1.90;;;1.40;;
74465;SDS011;62916;50.044;15.938;2023-07-13T12:22:26;1.60;;;1.50;;
74465;SDS011;62916;50.044;15.938;2023-07-13T12:24:58;1.60;;;1.50;;
74465;SDS011;62916;50.044;15.938;2023-07-13T12:27:29;1.80;;;1.70;;
74465;SDS011;62916;50.044;15.938;2023-07-13T12:30:02;2.20;;;2.00;;
74465;SDS011;62916;50.044;15.938;2023-07-13T12:32:57;1.60;;;1.50;;
74465;SDS011;62916;50.044;15.938;2023-07-13T12:35:30;1.60;;;1.50;;
74465;SDS011;62916;50.044;15.938;2023-07-13T12:40:37;1.50;;;1.40;;
74465;SDS011;62916;50.044;15.938;2023-07-13T12:43:12;1.50;;;1.40;;
74465;SDS011;62916;50.044;15.938;2023-07-13T12:45:55;1.80;;;1.50;;
74465;SDS011;62916;50.044;15.938;2023-07-13T12:48:28;1.70;;;1.60;;
74465;SDS011;62916;50.044;15.938;2023-07-13T12:51:20;1.60;;;1.50;;
74465;SDS011;62916;50.044;15.938;2023-07-13T12:53:56;1.90;;;1.60;;
74465;SDS011;62916;50.044;15.938;2023-07-13T12:56:33;1.60;;;1.50;;
74465;SDS011;62916;50.044;15.938;2023-07-13T12:59:05;2.50;;;1.70;;
74465;SDS011;62916;50.044;15.938;2023-07-13T13:01:44;1.90;;;1.80;;
74465;SDS011;62916;50.044;15.938;2023-07-13T13:04:17;1.50;;;1.40;;
74465;SDS011;62916;50.044;15.938;2023-07-13T13:06:58;1.70;;;1.50;;
74465;SDS011;62916;50.044;15.938;2023-07-13T13:09:31;1.50;;;1.40;;
74465;SDS011;62916;50.044;15.938;2023-07-13T13:12:02;1.50;;;1.40;;
74465;SDS011;62916;50.044;15.938;2023-07-13T13:14:34;1.50;;;1.40;;
74465;SDS011;62916;50.044;15.938;2023-07-13T13:17:07;1.60;;;1.50;;
74465;SDS011;62916;50.044;15.938;2023-07-13T13:19:51;1.40;;;1.30;;
74465;SDS011;62916;50.044;15.938;2023-07-13T13:22:22;1.80;;;1.50;;
74465;SDS011;62916;50.044;15.938;2023-07-13T13:24:53;1.60;;;1.50;;
74465;SDS011;62916;50.044;15.938;2023-07-13T13:27:24;1.50;;;1.40;;
74465;SDS011;62916;50.044;15.938;2023-07-13T13:29:55;1.50;;;1.40;;
74465;SDS011;62916;50.044;15.938;2023-07-13T13:32:26;1.70;;;1.20;;
74465;SDS011;62916;50.044;15.938;2023-07-13T13:34:57;2.70;;;1.70;;
74465;SDS011;62916;50.044;15.938;2023-07-13T13:37:29;1.60;;;1.50;;
74465;SDS011;62916;50.044;15.938;2023-07-13T13:40:00;1.20;;;1.10;;
74465;SDS011;62916;50.044;15.938;2023-07-13T13:42:36;1.70;;;1.30;;
74465;SDS011;62916;50.044;15.938;2023-07-13T13:45:08;1.90;;;1.60;;
74465;SDS011;62916;50.044;15.938;2023-07-13T13:47:40;1.40;;;1.20;;
74465;SDS011;62916;50.044;15.938;2023-07-13T13:50:13;1.50;;;1.40;;
74465;SDS011;62916;50.044;15.938;2023-07-13T13:55:16;1.30;;;1.20;;
74465;SDS011;62916;50.044;15.938;2023-07-13T13:57:48;1.60;;;1.50;;
74465;SDS011;62916;50.044;15.938;2023-07-13T14:00:20;1.20;;;1.00;;
74465;SDS011;62916;50.044;15.938;2023-07-13T14:02:52;1.50;;;1.40;;
74465;SDS011;62916;50.044;15.938;2023-07-13T14:05:25;1.80;;;1.70;;
74465;SDS011;62916;50.044;15.938;2023-07-13T14:07:57;1.80;;;1.30;;
74465;SDS011;62916;50.044;15.938;2023-07-13T14:10:28;1.10;;;1.00;;
74465;SDS011;62916;50.044;15.938;2023-07-13T14:13:00;1.80;;;1.40;;
74465;SDS011;62916;50.044;15.938;2023-07-13T14:15:33;1.30;;;1.20;;
74465;SDS011;62916;50.044;15.938;2023-07-13T14:18:04;3.10;;;1.20;;
74465;SDS011;62916;50.044;15.938;2023-07-13T14:20:37;2.70;;;1.60;;
74465;SDS011;62916;50.044;15.938;2023-07-13T14:23:08;8.20;;;1.80;;
74465;SDS011;62916;50.044;15.938;2023-07-13T14:25:39;3.90;;;1.50;;
74465;SDS011;62916;50.044;15.938;2023-07-13T14:28:16;6.80;;;1.80;;
74465;SDS011;62916;50.044;15.938;2023-07-13T14:30:50;10.30;;;2.00;;
74465;SDS011;62916;50.044;15.938;2023-07-13T14:33:22;7.70;;;2.00;;
74465;SDS011;62916;50.044;15.938;2023-07-13T14:35:54;3.60;;;1.70;;
74465;SDS011;62916;50.044;15.938;2023-07-13T14:38:25;4.70;;;1.60;;
74465;SDS011;62916;50.044;15.938;2023-07-13T14:40:56;5.00;;;2.00;;
74465;SDS011;62916;50.044;15.938;2023-07-13T14:43:27;3.90;;;1.80;;
74465;SDS011;62916;50.044;15.938;2023-07-13T14:45:58;3.80;;;1.90;;
74465;SDS011;62916;50.044;15.938;2023-07-13T14:48:29;4.10;;;1.50;;
74465;SDS011;62916;50.044;15.938;2023-07-13T14:51:00;4.80;;;1.30;;
74465;SDS011;62916;50.044;15.938;2023-07-13T14:53:31;4.40;;;1.50;;
74465;SDS011;62916;50.044;15.938;2023-07-13T14:56:04;5.30;;;1.60;;
74465;SDS011;62916;50.044;15.938;2023-07-13T14:58:41;3.80;;;1.70;;
74465;SDS011;62916;50.044;15.938;2023-07-13T15:01:13;3.90;;;1.50;;
74465;SDS011;62916;50.044;15.938;2023-07-13T15:03:45;4.80;;;2.00;;
74465;SDS011;62916;50.044;15.938;2023-07-13T15:06:17;7.90;;;1.60;;
74465;SDS011;62916;50.044;15.938;2023-07-13T15:08:49;4.90;;;1.40;;
74465;SDS011;62916;50.044;15.938;2023-07-13T15:11:19;9.20;;;1.80;;
74465;SDS011;62916;50.044;15.938;2023-07-13T15:13:51;6.20;;;1.50;;
74465;SDS011;62916;50.044;15.938;2023-07-13T15:16:23;3.70;;;1.40;;
74465;SDS011;62916;50.044;15.938;2023-07-13T15:18:54;4.10;;;1.40;;
74465;SDS011;62916;50.044;15.938;2023-07-13T15:21:28;5.00;;;1.70;;
74465;SDS011;62916;50.044;15.938;2023-07-13T15:24:02;3.00;;;1.50;;
74465;SDS011;62916;50.044;15.938;2023-07-13T15:26:36;6.50;;;1.60;;
74465;SDS011;62916;50.044;15.938;2023-07-13T15:29:07;4.00;;;1.60;;
74465;SDS011;62916;50.044;15.938;2023-07-13T15:31:38;3.10;;;1.30;;
74465;SDS011;62916;50.044;15.938;2023-07-13T15:34:11;5.20;;;1.90;;
74465;SDS011;62916;50.044;15.938;2023-07-13T15:36:45;3.20;;;1.40;;